createdAt,value
2019-03-12T00:00:29.376Z,4.23
2019-03-12T00:02:57.795Z,4.67
2019-03-12T00:05:26.208Z,3.10
2019-03-12T00:07:54.620Z,4.93
2019-03-12T00:10:23.019Z,5.57
2019-03-12T00:12:51.440Z,4.57
2019-03-12T00:15:19.847Z,7.47
2019-03-12T00:17:51.395Z,3.87
2019-03-12T00:20:19.832Z,3.67
2019-03-12T00:22:48.237Z,3.90
2019-03-12T00:25:16.651Z,4.23
2019-03-12T00:27:45.061Z,6.60
2019-03-12T00:30:13.553Z,4.23
2019-03-12T00:32:41.962Z,3.77
2019-03-12T00:35:10.519Z,3.03
2019-03-12T00:37:38.923Z,4.80
2019-03-12T00:40:08.792Z,5.53
2019-03-12T00:42:37.191Z,4.50
2019-03-12T00:45:08.249Z,2.87
2019-03-12T00:47:38.526Z,5.03
2019-03-12T00:50:09.380Z,7.10
2019-03-12T00:52:37.938Z,4.60
2019-03-12T00:55:07.981Z,4.17
2019-03-12T00:57:36.384Z,5.40
2019-03-12T01:00:07.869Z,4.67
2019-03-12T01:02:36.271Z,7.03
2019-03-12T01:05:06.031Z,3.43
2019-03-12T01:07:34.432Z,4.10
2019-03-12T01:10:02.986Z,3.77
2019-03-12T01:12:31.459Z,5.03
2019-03-12T01:14:59.869Z,4.40
2019-03-12T01:17:28.280Z,3.30
2019-03-12T01:19:56.750Z,3.67
2019-03-12T01:22:25.160Z,3.40
2019-03-12T01:24:53.636Z,5.37
2019-03-12T01:27:22.088Z,5.77
2019-03-12T01:29:50.499Z,4.67
2019-03-12T01:32:18.905Z,5.50
2019-03-12T01:34:47.316Z,6.47
2019-03-12T01:37:15.719Z,5.27
2019-03-12T01:39:44.133Z,4.63
2019-03-12T01:42:12.563Z,5.70
2019-03-12T01:44:41.036Z,6.30
2019-03-12T01:47:09.479Z,5.87
2019-03-12T01:49:37.960Z,5.73
2019-03-12T01:52:06.432Z,7.63
2019-03-12T01:54:34.850Z,5.23
2019-03-12T01:57:03.249Z,5.60
2019-03-12T01:59:31.732Z,5.00
2019-03-12T02:02:00.136Z,5.53
2019-03-12T02:04:28.630Z,5.97
2019-03-12T02:06:57.624Z,4.40
2019-03-12T02:09:26.111Z,6.93
2019-03-12T02:11:54.516Z,4.70
2019-03-12T02:14:27.453Z,5.50
2019-03-12T02:16:55.855Z,4.53
2019-03-12T02:19:24.396Z,4.73
2019-03-12T02:21:52.862Z,6.13
2019-03-12T02:24:21.273Z,5.37
2019-03-12T02:26:49.830Z,6.27
2019-03-12T02:29:18.364Z,5.00
2019-03-12T02:31:46.761Z,6.90
2019-03-12T02:34:15.168Z,5.50
2019-03-12T02:36:43.567Z,5.70
2019-03-12T02:39:11.985Z,5.37
2019-03-12T02:41:40.377Z,5.80
2019-03-12T02:44:08.811Z,8.13
2019-03-12T02:46:37.282Z,6.90
2019-03-12T02:49:09.052Z,5.33
2019-03-12T02:51:35.818Z,5.97
2019-03-12T02:54:04.315Z,3.97
2019-03-12T02:56:32.771Z,6.47
2019-03-12T02:59:01.172Z,6.13
2019-03-12T03:01:29.572Z,6.10
2019-03-12T03:03:57.983Z,6.93
2019-03-12T03:06:36.887Z,7.63
2019-03-12T03:09:06.805Z,5.77
2019-03-12T03:11:35.204Z,5.80
2019-03-12T03:14:03.672Z,7.70
2019-03-12T03:16:32.133Z,4.80
2019-03-12T03:19:00.546Z,5.57
2019-03-12T03:21:28.964Z,5.97
2019-03-12T03:23:57.369Z,7.17
2019-03-12T03:26:25.777Z,4.20
2019-03-12T03:28:54.198Z,4.43
2019-03-12T03:31:22.597Z,5.20
2019-03-12T03:33:51.010Z,7.23
2019-03-12T03:36:19.421Z,7.23
2019-03-12T03:38:47.821Z,6.40
2019-03-12T03:41:16.237Z,7.23
2019-03-12T03:43:44.653Z,6.40
2019-03-12T03:46:13.119Z,6.87
2019-03-12T03:48:41.529Z,5.30
2019-03-12T03:51:09.950Z,4.37
2019-03-12T03:53:38.340Z,7.90
2019-03-12T03:56:06.755Z,6.67
2019-03-12T03:58:35.166Z,5.87
2019-03-12T04:01:03.811Z,5.70
2019-03-12T04:03:32.284Z,5.67
2019-03-12T04:06:00.689Z,8.23
2019-03-12T04:08:29.089Z,7.67
2019-03-12T04:10:57.497Z,6.37
2019-03-12T04:13:25.918Z,4.43
2019-03-12T04:15:54.381Z,7.17
2019-03-12T04:18:22.804Z,6.17
2019-03-12T04:20:51.218Z,5.67
2019-03-12T04:23:19.636Z,5.73
2019-03-12T04:25:48.033Z,4.83
2019-03-12T04:28:16.449Z,6.33
2019-03-12T04:30:44.860Z,6.10
2019-03-12T04:33:41.579Z,6.17
2019-03-12T04:36:10.077Z,5.17
2019-03-12T04:38:38.480Z,7.20
2019-03-12T04:41:06.896Z,5.57
2019-03-12T04:43:35.297Z,7.93
2019-03-12T04:46:03.710Z,7.37
2019-03-12T04:48:32.116Z,7.63
2019-03-12T04:51:00.533Z,8.90
2019-03-12T04:53:28.946Z,5.73
2019-03-12T04:55:57.348Z,6.10
2019-03-12T04:58:25.764Z,6.27
2019-03-12T05:00:54.244Z,10.40
2019-03-12T05:03:22.652Z,6.10
2019-03-12T05:05:51.065Z,7.37
2019-03-12T05:08:19.470Z,7.90
2019-03-12T05:10:47.880Z,9.47
2019-03-12T05:13:16.282Z,7.13
2019-03-12T05:15:44.719Z,6.20
2019-03-12T05:18:13.111Z,6.77
2019-03-12T05:20:41.525Z,7.00
2019-03-12T05:23:09.928Z,8.93
2019-03-12T05:25:38.332Z,6.33
2019-03-12T05:28:06.736Z,7.07
2019-03-12T05:30:35.163Z,5.50
2019-03-12T05:33:03.560Z,6.67
2019-03-12T05:35:31.976Z,7.43
2019-03-12T05:38:00.385Z,4.03
2019-03-12T05:40:28.780Z,5.87
2019-03-12T05:42:57.192Z,7.30
2019-03-12T05:45:25.604Z,4.80
2019-03-12T05:47:54.009Z,7.73
2019-03-12T05:50:22.505Z,5.87
2019-03-12T05:52:50.933Z,5.53
2019-03-12T05:55:19.461Z,5.10
2019-03-12T05:57:47.884Z,5.07
2019-03-12T06:00:22.306Z,4.80
2019-03-12T06:02:50.709Z,9.20
2019-03-12T06:05:19.117Z,5.80
2019-03-12T06:07:47.535Z,5.97
2019-03-12T06:10:16.481Z,6.33
2019-03-12T06:12:44.965Z,8.10
2019-03-12T06:15:14.805Z,5.23
2019-03-12T06:17:43.223Z,7.77
2019-03-12T06:20:12.971Z,4.43
2019-03-12T06:22:41.441Z,8.33
2019-03-12T06:25:10.024Z,8.70
2019-03-12T06:27:38.436Z,6.90
2019-03-12T06:30:12.205Z,8.30
2019-03-12T06:33:00.207Z,6.57
2019-03-12T06:35:33.263Z,9.00
2019-03-12T06:38:03.350Z,8.20
2019-03-12T06:40:33.385Z,5.60
2019-03-12T06:43:12.490Z,6.70
2019-03-12T06:45:42.547Z,7.37
2019-03-12T06:48:15.510Z,9.17
2019-03-12T06:50:48.239Z,7.33
2019-03-12T06:53:21.000Z,5.80
2019-03-12T06:56:06.852Z,7.50
2019-03-12T06:58:51.731Z,7.60
2019-03-12T07:01:21.793Z,6.50
2019-03-12T07:04:08.140Z,6.67
2019-03-12T07:06:54.544Z,7.70
2019-03-12T07:09:30.671Z,10.07
2019-03-12T07:12:03.716Z,7.63
2019-03-12T07:14:39.501Z,7.50
2019-03-12T07:17:15.382Z,7.50
2019-03-12T07:19:54.488Z,7.53
2019-03-12T07:22:24.540Z,10.07
2019-03-12T07:25:06.417Z,9.17
2019-03-12T07:27:45.136Z,8.13
2019-03-12T07:30:23.959Z,7.13
2019-03-12T07:33:09.106Z,5.40
2019-03-12T07:35:54.903Z,7.43
2019-03-12T07:38:24.955Z,8.23
2019-03-12T07:41:00.603Z,12.67
2019-03-12T07:43:39.226Z,6.77
2019-03-12T07:46:18.348Z,8.17
2019-03-12T07:48:48.407Z,7.33
2019-03-12T07:51:21.370Z,7.30
2019-03-12T07:53:59.748Z,6.93
2019-03-12T07:56:34.616Z,6.80
2019-03-12T07:59:04.676Z,10.13
2019-03-12T08:01:46.725Z,7.57
2019-03-12T08:04:19.224Z,6.40
2019-03-12T08:06:54.972Z,6.93
2019-03-12T08:09:25.025Z,6.80
2019-03-12T08:11:55.071Z,6.77
2019-03-12T08:14:28.076Z,6.87
2019-03-12T08:17:07.061Z,8.53
2019-03-12T08:19:40.052Z,9.30
2019-03-12T08:22:13.070Z,8.30
2019-03-12T08:25:00.980Z,7.57
2019-03-12T08:27:31.037Z,6.07
2019-03-12T08:30:07.045Z,7.83
2019-03-12T08:35:44.868Z,6.87
2019-03-12T08:38:14.938Z,6.77
2019-03-12T08:40:52.553Z,7.57
2019-03-12T08:43:35.217Z,4.87
2019-03-12T08:46:05.277Z,5.40
2019-03-12T08:48:35.353Z,5.43
2019-03-12T08:51:17.173Z,5.57
2019-03-12T08:53:49.765Z,6.17
2019-03-12T08:56:19.832Z,5.97
2019-03-12T08:59:06.172Z,9.57
2019-03-12T09:01:36.315Z,5.93
2019-03-12T09:04:09.773Z,4.80
2019-03-12T09:06:39.840Z,7.63
2019-03-12T09:09:25.101Z,7.37
2019-03-12T09:11:57.857Z,6.73
2019-03-12T09:14:46.033Z,6.43
2019-03-12T09:17:24.992Z,8.60
2019-03-12T09:20:09.855Z,6.37
2019-03-12T09:22:39.905Z,6.13
2019-03-12T09:25:23.167Z,7.67
2019-03-12T09:27:55.581Z,8.27
2019-03-12T09:30:34.288Z,8.07
2019-03-12T09:33:07.317Z,4.50
2019-03-12T09:35:37.389Z,7.57
2019-03-12T09:38:10.077Z,8.17
2019-03-12T09:40:42.583Z,7.20
2019-03-12T09:43:12.642Z,4.97
2019-03-12T09:46:00.253Z,9.43
2019-03-12T09:48:30.354Z,6.63
2019-03-12T09:51:03.445Z,6.50
2019-03-12T09:53:49.525Z,11.07
2019-03-12T09:56:19.580Z,6.23
2019-03-12T09:58:52.314Z,3.80
2019-03-12T10:01:28.404Z,6.30
2019-03-12T10:04:01.222Z,7.40
2019-03-12T10:06:47.317Z,6.30
2019-03-12T10:09:20.094Z,5.10
2019-03-12T10:11:50.417Z,4.50
2019-03-12T10:14:26.252Z,4.87
2019-03-12T10:17:11.068Z,7.70
2019-03-12T10:19:41.124Z,5.40
2019-03-12T10:22:25.996Z,4.83
2019-03-12T10:25:12.336Z,5.13
2019-03-12T10:27:51.044Z,6.40
2019-03-12T10:30:29.836Z,7.90
2019-03-12T10:33:08.545Z,7.37
2019-03-12T10:35:38.621Z,7.73
2019-03-12T10:38:56.398Z,4.87
2019-03-12T10:41:34.921Z,8.17
2019-03-12T10:44:04.982Z,5.17
2019-03-12T10:46:37.637Z,3.87
2019-03-12T10:49:06.053Z,5.23
2019-03-12T10:51:34.557Z,3.47
2019-03-12T10:54:02.967Z,7.70
2019-03-12T10:56:31.375Z,5.40
2019-03-12T10:58:59.800Z,4.27
2019-03-12T11:01:28.219Z,6.10
2019-03-12T11:03:56.625Z,4.80
2019-03-12T11:06:25.113Z,5.70
2019-03-12T11:08:53.536Z,6.07
2019-03-12T11:11:21.967Z,7.43
2019-03-12T11:13:50.385Z,6.07
2019-03-12T11:16:18.826Z,6.50
2019-03-12T11:18:47.253Z,5.50
2019-03-12T11:21:15.676Z,6.20
2019-03-12T11:23:44.088Z,5.83
2019-03-12T11:26:12.528Z,6.83
2019-03-12T11:28:40.971Z,5.37
2019-03-12T11:31:09.378Z,2.77
2019-03-12T11:33:37.796Z,2.90
2019-03-12T11:36:06.204Z,5.73
2019-03-12T11:38:34.712Z,3.33
2019-03-12T11:41:03.319Z,4.10
2019-03-12T11:43:31.953Z,4.83
2019-03-12T11:46:00.377Z,6.17
2019-03-12T11:48:28.785Z,5.37
2019-03-12T11:50:57.229Z,3.50
2019-03-12T11:53:25.701Z,4.33
2019-03-12T11:55:54.233Z,4.00
2019-03-12T11:58:22.716Z,4.83
2019-03-12T12:00:58.864Z,2.67
2019-03-12T12:03:27.396Z,3.83
2019-03-12T12:05:55.854Z,2.43
2019-03-12T12:08:24.317Z,4.00
2019-03-12T12:10:52.809Z,2.80
2019-03-12T12:13:21.233Z,5.30
2019-03-12T12:15:49.749Z,3.23
2019-03-12T12:18:18.177Z,5.93
2019-03-12T12:20:46.598Z,4.90
2019-03-12T12:23:15.097Z,2.90
2019-03-12T12:25:43.540Z,3.83
2019-03-12T12:28:12.016Z,2.60
2019-03-12T12:30:40.431Z,5.57
2019-03-12T12:33:08.853Z,4.70
2019-03-12T12:35:37.352Z,3.30
2019-03-12T12:38:05.840Z,3.20
2019-03-12T12:40:34.334Z,2.87
2019-03-12T12:43:02.750Z,5.67
2019-03-12T12:45:39.229Z,2.50
2019-03-12T12:48:07.652Z,3.27
2019-03-12T12:50:36.179Z,2.23
2019-03-12T12:53:04.681Z,2.63
2019-03-12T12:55:33.097Z,3.03
2019-03-12T12:58:01.519Z,2.60
2019-03-12T13:00:30.381Z,3.03
2019-03-12T13:02:58.809Z,3.97
2019-03-12T13:05:27.247Z,2.83
2019-03-12T13:07:55.657Z,3.67
2019-03-12T13:10:25.624Z,2.10
2019-03-12T13:12:54.024Z,5.67
2019-03-12T13:15:22.589Z,2.40
2019-03-12T13:17:51.064Z,1.73
2019-03-12T13:20:19.625Z,2.37
2019-03-12T13:22:48.176Z,2.60
2019-03-12T13:25:17.617Z,2.07
2019-03-12T13:27:46.034Z,3.43
2019-03-12T13:30:27.233Z,2.73
2019-03-12T13:32:55.718Z,3.07
2019-03-12T13:35:24.124Z,2.60
2019-03-12T13:37:52.609Z,1.83
2019-03-12T13:40:22.332Z,2.10
2019-03-12T13:42:51.000Z,2.17
2019-03-12T13:45:20.950Z,1.80
2019-03-12T13:47:49.758Z,2.17
2019-03-12T13:50:18.480Z,1.90
2019-03-12T13:52:46.914Z,2.27
2019-03-12T13:55:16.127Z,3.47
2019-03-12T13:57:45.045Z,2.40
2019-03-12T14:00:22.080Z,3.30
2019-03-12T14:02:50.630Z,1.63
2019-03-12T14:05:19.191Z,3.37
2019-03-12T14:07:47.675Z,3.53
2019-03-12T14:10:25.540Z,2.63
2019-03-12T14:12:55.397Z,2.27
2019-03-12T14:15:32.846Z,2.83
2019-03-12T14:18:01.401Z,4.07
2019-03-12T14:20:41.011Z,2.63
2019-03-12T14:23:11.451Z,3.20
2019-03-12T14:25:39.923Z,4.07
2019-03-12T14:28:08.332Z,1.60
2019-03-12T14:30:36.816Z,2.93
2019-03-12T14:33:05.468Z,3.43
2019-03-12T14:35:33.939Z,1.33
2019-03-12T14:38:02.352Z,2.57
2019-03-12T14:40:30.798Z,1.17
2019-03-12T14:42:59.273Z,1.93
2019-03-12T14:45:28.925Z,2.20
2019-03-12T14:47:57.580Z,2.37
2019-03-12T14:50:27.636Z,2.47
2019-03-12T14:53:21.425Z,4.40
2019-03-12T14:55:41.372Z,1.07
2019-03-12T14:58:09.874Z,2.53
2019-03-12T15:00:38.287Z,2.73
2019-03-12T15:03:06.760Z,2.33
2019-03-12T15:05:35.312Z,1.57
2019-03-12T15:08:05.337Z,2.30
2019-03-12T15:10:33.750Z,1.80
2019-03-12T15:13:02.166Z,2.10
2019-03-12T15:15:30.584Z,2.30
2019-03-12T15:17:58.988Z,1.73
2019-03-12T15:20:27.400Z,2.77
2019-03-12T15:22:55.827Z,2.50
2019-03-12T15:25:24.224Z,1.70
2019-03-12T15:27:52.653Z,2.73
2019-03-12T15:30:23.476Z,2.30
2019-03-12T15:32:51.885Z,1.67
2019-03-12T15:35:20.307Z,3.83
2019-03-12T15:37:48.726Z,4.33
2019-03-12T15:40:17.128Z,1.63
2019-03-12T15:42:45.617Z,2.43
2019-03-12T15:45:15.382Z,2.10
2019-03-12T15:47:43.970Z,2.17
2019-03-12T15:50:14.905Z,3.47
2019-03-12T15:52:43.320Z,3.67
2019-03-12T15:55:11.867Z,3.33
2019-03-12T15:57:40.272Z,1.93
2019-03-12T16:00:16.170Z,2.50
2019-03-12T16:02:44.614Z,2.07
2019-03-12T16:05:13.257Z,2.00
2019-03-12T16:07:42.749Z,1.90
2019-03-12T16:10:19.468Z,3.03
2019-03-12T16:12:48.158Z,3.33
2019-03-12T16:15:19.583Z,3.13
2019-03-12T16:17:47.998Z,2.13
2019-03-12T16:20:17.857Z,1.70
2019-03-12T16:22:46.276Z,3.77
2019-03-12T16:25:14.821Z,2.53
2019-03-12T16:27:43.232Z,3.07
2019-03-12T16:30:16.136Z,2.60
2019-03-12T16:32:44.624Z,5.20
2019-03-12T16:35:13.174Z,4.73
2019-03-12T16:37:41.646Z,3.37
2019-03-12T16:40:13.134Z,5.43
2019-03-12T16:42:41.617Z,5.27
2019-03-12T16:45:12.519Z,3.43
2019-03-12T16:47:40.972Z,2.53
2019-03-12T16:50:12.102Z,2.20
2019-03-12T16:52:40.508Z,2.40
2019-03-12T16:55:11.464Z,3.50
2019-03-12T16:57:39.952Z,4.30
2019-03-12T17:00:11.558Z,3.87
2019-03-12T17:02:39.976Z,4.87
2019-03-12T17:05:10.232Z,4.43
2019-03-12T17:07:38.721Z,2.90
2019-03-12T17:10:13.189Z,3.30
2019-03-12T17:12:41.651Z,4.37
2019-03-12T17:15:12.957Z,2.97
2019-03-12T17:17:41.367Z,7.20
2019-03-12T17:20:12.219Z,2.60
2019-03-12T17:22:40.622Z,3.07
2019-03-12T17:25:10.882Z,6.40
2019-03-12T17:27:39.292Z,3.67
2019-03-12T17:30:19.865Z,4.27
2019-03-12T17:32:48.418Z,3.77
2019-03-12T17:35:22.846Z,5.00
2019-03-12T17:37:51.269Z,3.80
2019-03-12T17:40:21.200Z,4.93
2019-03-12T17:42:49.620Z,5.63
2019-03-12T17:45:18.109Z,3.37
2019-03-12T17:47:46.516Z,2.37
2019-03-12T17:50:15.081Z,4.23
2019-03-12T17:52:43.490Z,2.73
2019-03-12T17:55:15.157Z,3.93
2019-03-12T17:57:43.574Z,4.20
2019-03-12T18:00:24.153Z,3.80
2019-03-12T18:02:52.575Z,3.93
2019-03-12T18:05:21.123Z,4.47
2019-03-12T18:07:49.523Z,3.57
2019-03-12T18:10:18.509Z,3.37
2019-03-12T18:12:46.993Z,3.80
2019-03-12T18:15:19.420Z,4.23
2019-03-12T18:17:47.777Z,3.03
2019-03-12T18:20:20.788Z,3.33
2019-03-12T18:22:49.183Z,4.90
2019-03-12T18:25:29.110Z,3.27
2019-03-12T18:27:57.616Z,4.97
2019-03-12T18:30:26.085Z,3.17
2019-03-12T18:32:54.552Z,3.47
2019-03-12T18:35:22.972Z,3.20
2019-03-12T18:37:51.372Z,4.80
2019-03-12T18:40:21.026Z,3.53
2019-03-12T18:42:49.465Z,4.57
2019-03-12T18:45:28.232Z,3.63
2019-03-12T18:47:56.644Z,3.70
2019-03-12T18:50:25.129Z,4.00
2019-03-12T18:52:53.549Z,3.90
2019-03-12T18:55:33.871Z,3.50
2019-03-12T18:58:03.029Z,4.30
2019-03-12T19:00:32.177Z,3.23
2019-03-12T19:03:00.589Z,3.83
2019-03-12T19:05:29.014Z,4.07
2019-03-12T19:07:57.416Z,4.30
2019-03-12T19:10:25.829Z,5.53
2019-03-12T19:12:54.236Z,3.93
2019-03-12T19:15:22.726Z,4.40
2019-03-12T19:17:51.120Z,2.60
2019-03-12T19:20:20.162Z,3.93
2019-03-12T19:22:48.654Z,6.30
2019-03-12T19:25:22.020Z,4.90
2019-03-12T19:27:59.686Z,3.97
2019-03-12T19:30:20.826Z,3.37
2019-03-12T19:32:57.036Z,5.73
2019-03-12T19:35:26.909Z,4.23
2019-03-12T19:37:55.754Z,4.33
2019-03-12T19:40:39.022Z,4.00
2019-03-12T19:43:07.781Z,3.67
2019-03-12T19:45:36.341Z,5.20
2019-03-12T19:48:05.292Z,3.77
2019-03-12T19:50:33.957Z,3.20
2019-03-12T19:53:02.352Z,4.43
2019-03-12T19:55:36.429Z,6.73
2019-03-12T19:58:04.976Z,4.03
2019-03-12T20:00:34.048Z,3.90
2019-03-12T20:03:11.806Z,4.27
2019-03-12T20:05:40.212Z,3.60
2019-03-12T20:08:08.648Z,3.13
2019-03-12T20:10:54.731Z,5.13
2019-03-12T20:13:37.991Z,4.03
2019-03-12T20:16:41.252Z,3.33
2019-03-12T20:19:48.418Z,5.47
2019-03-12T20:22:36.080Z,2.57
2019-03-12T20:25:19.227Z,2.47
2019-03-12T20:28:14.760Z,2.90
2019-03-12T20:31:09.875Z,3.17
2019-03-12T20:34:14.254Z,2.77
2019-03-12T20:37:17.044Z,2.30
2019-03-12T20:40:13.804Z,2.67
2019-03-12T20:43:07.703Z,3.47
2019-03-12T20:45:58.251Z,2.73
2019-03-12T20:49:10.994Z,3.33
2019-03-12T20:51:59.767Z,3.63
2019-03-12T20:54:53.618Z,1.80
2019-03-12T20:57:27.938Z,4.10
2019-03-12T21:00:35.390Z,4.27
2019-03-12T21:03:24.968Z,3.33
2019-03-12T21:06:22.912Z,3.43
2019-03-12T21:09:27.295Z,4.50
2019-03-12T21:12:15.098Z,2.63
2019-03-12T21:14:58.112Z,3.83
2019-03-12T21:17:45.738Z,4.13
2019-03-12T21:20:42.423Z,2.73
2019-03-12T21:23:25.564Z,3.10
2019-03-12T21:26:06.236Z,2.67
2019-03-12T21:28:58.633Z,2.57
2019-03-12T21:31:27.065Z,4.07
2019-03-12T21:33:55.490Z,3.17
2019-03-12T21:36:24.134Z,2.10
2019-03-12T21:38:52.616Z,2.00
2019-03-12T21:41:21.099Z,3.00
2019-03-12T21:43:49.543Z,2.97
2019-03-12T21:46:18.144Z,3.40
2019-03-12T21:48:47.564Z,2.53
2019-03-12T21:51:15.967Z,2.40
2019-03-12T21:53:44.387Z,2.80
2019-03-12T21:56:12.795Z,2.17
2019-03-12T21:58:41.200Z,2.07
2019-03-12T22:01:09.688Z,2.93
2019-03-12T22:03:38.165Z,1.53
2019-03-12T22:06:06.567Z,3.63
2019-03-12T22:08:35.077Z,1.90
2019-03-12T22:11:03.485Z,3.00
2019-03-12T22:13:31.907Z,1.90
2019-03-12T22:16:00.319Z,1.80
2019-03-12T22:18:28.721Z,2.73
2019-03-12T22:20:57.287Z,5.27
2019-03-12T22:23:27.377Z,1.97
2019-03-12T22:25:56.148Z,2.27
2019-03-12T22:28:29.679Z,2.47
2019-03-12T22:30:58.107Z,2.60
2019-03-12T22:33:26.512Z,2.03
2019-03-12T22:35:54.911Z,2.33
2019-03-12T22:38:23.316Z,1.67
2019-03-12T22:40:51.725Z,1.57
2019-03-12T22:43:20.132Z,2.37
2019-03-12T22:45:48.545Z,1.60
2019-03-12T22:48:16.949Z,1.97
2019-03-12T22:50:45.361Z,3.10
2019-03-12T22:53:13.781Z,1.87
2019-03-12T22:55:42.177Z,1.93
2019-03-12T22:58:10.580Z,2.30
2019-03-12T23:00:40.137Z,2.23
2019-03-12T23:03:08.540Z,2.63
2019-03-12T23:05:37.016Z,1.53
2019-03-12T23:08:05.501Z,1.40
2019-03-12T23:10:34.576Z,1.80
2019-03-12T23:13:02.991Z,2.27
2019-03-12T23:15:31.640Z,1.90
2019-03-12T23:18:00.036Z,1.70
2019-03-12T23:20:28.592Z,1.90
2019-03-12T23:22:57.051Z,3.27
2019-03-12T23:25:25.517Z,4.40
2019-03-12T23:27:53.926Z,2.87
2019-03-12T23:30:23.436Z,2.27
2019-03-12T23:32:52.511Z,2.40
2019-03-12T23:35:20.924Z,2.80
2019-03-12T23:37:49.390Z,2.10
2019-03-12T23:40:20.872Z,2.33
2019-03-12T23:42:49.417Z,2.20
2019-03-12T23:45:17.893Z,5.73
2019-03-12T23:47:46.472Z,2.13
2019-03-12T23:50:16.523Z,2.00
2019-03-12T23:52:45.065Z,1.80
2019-03-12T23:55:15.480Z,1.93
2019-03-12T23:57:44.068Z,2.50
